createdAt,value
2023-05-22T00:02:08.032Z,16.98
2023-05-22T00:04:34.744Z,15.98
2023-05-22T00:07:01.530Z,17.23
2023-05-22T00:09:28.143Z,17.15
2023-05-22T00:11:55.010Z,16.20
2023-05-22T00:14:21.803Z,17.58
2023-05-22T00:16:48.579Z,16.65
2023-05-22T00:19:16.583Z,17.88
2023-05-22T00:21:44.215Z,17.30
2023-05-22T00:24:11.240Z,18.63
2023-05-22T00:26:38.137Z,16.70
2023-05-22T00:29:05.984Z,20.02
2023-05-22T00:31:33.751Z,17.27
2023-05-22T00:34:03.534Z,17.33
2023-05-22T00:36:30.334Z,19.90
2023-05-22T00:38:57.035Z,19.60
2023-05-22T00:41:27.325Z,18.02
2023-05-22T00:43:54.710Z,19.33
2023-05-22T00:46:22.708Z,19.63
2023-05-22T00:48:49.594Z,18.08
2023-05-22T00:51:16.344Z,18.52
2023-05-22T00:53:44.236Z,17.08
2023-05-22T00:56:11.236Z,17.23
2023-05-22T00:58:37.913Z,17.10
2023-05-22T01:01:07.650Z,16.83
2023-05-22T01:03:44.729Z,15.95
2023-05-22T01:06:13.292Z,17.45
2023-05-22T01:08:41.246Z,16.85
2023-05-22T01:11:22.216Z,17.85
2023-05-22T01:14:11.954Z,16.55
2023-05-22T01:16:59.705Z,15.45
2023-05-22T01:20:01.462Z,17.80
2023-05-22T01:23:10.757Z,17.83
2023-05-22T01:26:15.749Z,18.30
2023-05-22T01:29:01.346Z,17.70
2023-05-22T01:33:59.037Z,17.25
2023-05-22T01:36:31.027Z,20.40
2023-05-22T01:39:01.256Z,19.38
2023-05-22T01:41:29.847Z,16.85
2023-05-22T01:43:57.261Z,16.33
2023-05-22T01:46:28.945Z,18.25
2023-05-22T01:48:56.097Z,17.95
2023-05-22T01:51:34.519Z,16.83
2023-05-22T01:54:20.019Z,18.90
2023-05-22T01:59:23.324Z,17.42
2023-05-22T02:01:52.802Z,18.27
2023-05-22T02:04:21.537Z,17.73
2023-05-22T02:06:51.535Z,20.17
2023-05-22T02:09:19.480Z,19.67
2023-05-22T02:11:47.770Z,17.30
2023-05-22T02:14:16.090Z,19.45
2023-05-22T02:16:47.850Z,17.95
2023-05-22T02:19:15.337Z,19.13
2023-05-22T02:21:42.211Z,18.45
2023-05-22T02:24:09.187Z,19.13
2023-05-22T02:26:35.877Z,19.40
2023-05-22T02:29:02.568Z,18.02
2023-05-22T02:31:29.549Z,21.25
2023-05-22T02:33:56.455Z,18.08
2023-05-22T02:36:23.193Z,19.55
2023-05-22T02:38:49.967Z,20.60
2023-05-22T02:41:18.479Z,17.83
2023-05-22T02:43:45.225Z,19.40
2023-05-22T02:46:11.849Z,18.20
2023-05-22T02:48:38.559Z,18.52
2023-05-22T02:51:05.247Z,17.77
2023-05-22T02:53:35.162Z,20.38
2023-05-22T02:56:03.008Z,17.60
2023-05-22T02:58:29.946Z,17.30
2023-05-22T03:00:56.978Z,18.20
2023-05-22T03:03:24.983Z,17.90
2023-05-22T03:05:58.326Z,20.88
2023-05-22T03:08:28.233Z,21.25
2023-05-22T03:10:56.673Z,20.10
2023-05-22T03:13:23.389Z,19.30
2023-05-22T03:15:50.190Z,17.70
2023-05-22T03:18:17.380Z,18.63
2023-05-22T03:20:44.240Z,20.67
2023-05-22T03:23:11.882Z,23.73
2023-05-22T03:25:38.866Z,18.73
2023-05-22T03:28:06.063Z,19.75
2023-05-22T03:30:33.246Z,25.35
2023-05-22T03:33:00.175Z,19.27
2023-05-22T03:35:27.064Z,23.13
2023-05-22T03:37:53.860Z,20.88
2023-05-22T03:40:20.666Z,19.35
2023-05-22T03:42:47.394Z,19.85
2023-05-22T03:45:14.100Z,21.42
2023-05-22T03:47:41.151Z,19.30
2023-05-22T03:50:08.349Z,21.15
2023-05-22T03:52:35.002Z,19.17
2023-05-22T03:55:01.927Z,20.25
2023-05-22T03:57:28.719Z,18.05
2023-05-22T03:59:55.407Z,18.90
2023-05-22T04:02:22.162Z,20.05
2023-05-22T04:04:49.052Z,21.30
2023-05-22T04:07:18.466Z,22.00
2023-05-22T04:09:45.328Z,19.73
2023-05-22T04:12:11.996Z,17.85
2023-05-22T04:14:38.748Z,19.50
2023-05-22T04:17:05.493Z,24.30
2023-05-22T04:19:32.290Z,22.52
2023-05-22T04:21:59.206Z,24.58
2023-05-22T04:24:27.499Z,18.40
2023-05-22T04:26:54.229Z,20.10
2023-05-22T04:29:22.750Z,20.33
2023-05-22T04:31:49.519Z,21.33
2023-05-22T04:34:18.208Z,24.40
2023-05-22T04:36:48.059Z,22.67
2023-05-22T04:39:15.134Z,18.88
2023-05-22T04:41:41.775Z,20.35
2023-05-22T04:44:08.585Z,20.33
2023-05-22T04:46:35.806Z,21.00
2023-05-22T04:49:03.366Z,23.20
2023-05-22T04:51:31.347Z,19.75
2023-05-22T04:53:58.633Z,20.02
2023-05-22T04:56:35.528Z,21.42
2023-05-22T04:59:05.768Z,19.88
2023-05-22T05:01:33.503Z,23.33
2023-05-22T05:04:02.463Z,21.13
2023-05-22T05:06:29.287Z,20.83
2023-05-22T05:08:55.977Z,21.58
2023-05-22T05:11:22.760Z,25.35
2023-05-22T05:13:49.410Z,20.85
2023-05-22T05:16:16.232Z,20.88
2023-05-22T05:18:43.829Z,23.05
2023-05-22T05:21:10.950Z,20.92
2023-05-22T05:23:37.849Z,23.27
2023-05-22T05:26:07.913Z,21.08
2023-05-22T05:28:34.619Z,23.10
2023-05-22T05:31:01.731Z,19.60
2023-05-22T05:33:28.438Z,23.55
2023-05-22T05:35:55.462Z,19.45
2023-05-22T05:38:22.608Z,25.33
2023-05-22T05:40:49.332Z,21.10
2023-05-22T05:43:16.017Z,24.60
2023-05-22T05:45:43.603Z,26.55
2023-05-22T05:48:11.785Z,22.45
2023-05-22T05:50:38.794Z,18.63
2023-05-22T05:53:06.207Z,21.65
2023-05-22T05:55:34.652Z,19.80
2023-05-22T05:58:01.438Z,17.15
2023-05-22T06:00:28.157Z,17.35
2023-05-22T06:02:54.946Z,16.88
2023-05-22T06:05:22.941Z,21.83
2023-05-22T06:07:49.865Z,15.35
2023-05-22T06:10:16.583Z,16.98
2023-05-22T06:12:43.483Z,20.42
2023-05-22T06:15:13.149Z,15.95
2023-05-22T06:17:42.974Z,18.38
2023-05-22T06:20:09.999Z,17.73
2023-05-22T06:22:37.522Z,19.27
2023-05-22T06:25:07.661Z,15.13
2023-05-22T06:27:34.374Z,16.42
2023-05-22T06:30:01.896Z,18.55
2023-05-22T06:32:28.800Z,17.92
2023-05-22T06:34:55.753Z,15.57
2023-05-22T06:37:22.427Z,16.90
2023-05-22T06:39:49.051Z,14.07
2023-05-22T06:42:15.828Z,14.65
2023-05-22T06:44:42.544Z,15.38
2023-05-22T06:47:09.726Z,13.68
2023-05-22T06:49:37.352Z,14.77
2023-05-22T06:52:05.468Z,14.98
2023-05-22T06:54:32.252Z,13.05
2023-05-22T06:57:01.018Z,16.08
2023-05-22T06:59:27.716Z,16.52
2023-05-22T07:01:54.472Z,18.02
2023-05-22T07:04:21.143Z,13.95
2023-05-22T07:06:48.479Z,19.55
2023-05-22T07:09:15.600Z,16.50
2023-05-22T07:11:43.809Z,16.27
2023-05-22T07:14:12.521Z,15.45
2023-05-22T07:16:42.598Z,17.90
2023-05-22T07:19:10.530Z,16.73
2023-05-22T07:21:37.561Z,13.88
2023-05-22T07:24:08.299Z,12.75
2023-05-22T07:26:36.198Z,13.45
2023-05-22T07:29:04.000Z,14.25
2023-05-22T07:31:32.050Z,11.38
2023-05-22T07:33:58.757Z,13.23
2023-05-22T07:36:25.483Z,13.60
2023-05-22T07:38:52.137Z,13.65
2023-05-22T07:41:18.800Z,15.20
2023-05-22T07:43:45.650Z,12.35
2023-05-22T07:46:12.409Z,13.25
2023-05-22T07:48:39.203Z,12.90
2023-05-22T07:51:06.088Z,13.70
2023-05-22T07:53:32.835Z,12.55
2023-05-22T07:56:12.204Z,12.95
2023-05-22T07:58:39.881Z,12.30
2023-05-22T08:01:12.967Z,12.73
2023-05-22T08:03:39.893Z,13.30
2023-05-22T08:06:10.078Z,12.50
2023-05-22T08:08:36.907Z,11.73
2023-05-22T08:11:04.741Z,11.27
2023-05-22T08:13:32.194Z,13.80
2023-05-22T08:16:00.317Z,15.68
2023-05-22T08:18:59.016Z,14.15
2023-05-22T08:21:25.816Z,13.75
2023-05-22T08:23:52.467Z,15.30
2023-05-22T08:26:19.137Z,12.38
2023-05-22T08:28:45.975Z,13.23
2023-05-22T08:31:13.370Z,11.10
2023-05-22T08:33:42.927Z,12.40
2023-05-22T08:36:09.597Z,12.63
2023-05-22T08:38:36.985Z,12.90
2023-05-22T08:41:04.794Z,11.30
2023-05-22T08:43:31.459Z,12.32
2023-05-22T08:46:05.071Z,13.07
2023-05-22T08:48:33.030Z,10.98
2023-05-22T08:51:22.561Z,11.48
2023-05-22T08:53:54.017Z,13.68
2023-05-22T08:56:21.158Z,11.65
2023-05-22T08:58:49.885Z,11.30
2023-05-22T09:01:17.151Z,11.73
2023-05-22T09:03:45.409Z,12.63
2023-05-22T09:06:12.629Z,12.68
2023-05-22T09:08:41.207Z,12.40
2023-05-22T09:11:07.988Z,12.10
2023-05-22T09:13:34.687Z,11.10
2023-05-22T09:16:12.162Z,11.27
2023-05-22T09:18:40.120Z,13.40
2023-05-22T09:21:17.765Z,12.95
2023-05-22T09:23:53.880Z,15.40
2023-05-22T09:26:21.592Z,11.85
2023-05-22T09:28:48.280Z,11.88
2023-05-22T09:31:15.283Z,11.18
2023-05-22T09:33:44.265Z,13.13
2023-05-22T09:36:11.115Z,10.98
2023-05-22T09:38:38.780Z,11.85
2023-05-22T09:41:06.073Z,14.18
2023-05-22T09:43:33.802Z,11.88
2023-05-22T09:46:06.780Z,12.57
2023-05-22T09:48:37.233Z,10.23
2023-05-22T09:51:05.067Z,12.20
2023-05-22T09:53:33.154Z,11.82
2023-05-22T09:56:01.323Z,13.00
2023-05-22T09:58:31.280Z,11.23
2023-05-22T10:00:59.225Z,11.40
2023-05-22T10:03:27.036Z,13.25
2023-05-22T10:05:56.179Z,12.75
2023-05-22T10:08:28.988Z,11.25
2023-05-22T10:10:55.815Z,11.85
2023-05-22T10:13:24.058Z,11.85
2023-05-22T10:15:51.278Z,13.50
2023-05-22T10:18:18.188Z,11.23
2023-05-22T10:20:46.987Z,11.80
2023-05-22T10:23:17.973Z,11.63
2023-05-22T10:25:45.717Z,13.55
2023-05-22T10:28:18.194Z,11.00
2023-05-22T10:30:53.667Z,11.65
2023-05-22T10:33:29.398Z,11.63
2023-05-22T10:36:09.583Z,10.90
2023-05-22T10:38:51.916Z,12.15
2023-05-22T10:41:19.132Z,12.18
2023-05-22T10:43:49.665Z,12.55
2023-05-22T10:46:25.908Z,12.82
2023-05-22T10:48:55.036Z,11.75
2023-05-22T10:51:22.823Z,11.05
2023-05-22T10:53:53.679Z,11.55
2023-05-22T10:56:34.213Z,10.95
2023-05-22T10:59:05.120Z,10.85
2023-05-22T11:01:35.992Z,11.27
2023-05-22T11:04:11.800Z,11.10
2023-05-22T11:07:02.212Z,11.65
2023-05-22T11:09:32.848Z,11.85
2023-05-22T11:12:20.453Z,11.25
2023-05-22T11:14:58.299Z,12.73
2023-05-22T11:17:28.757Z,11.05
2023-05-22T11:20:06.622Z,11.77
2023-05-22T11:22:35.856Z,11.02
2023-05-22T11:25:08.640Z,11.75
2023-05-22T11:27:36.502Z,13.32
2023-05-22T11:30:04.107Z,12.05
2023-05-22T11:32:30.902Z,11.77
2023-05-22T11:34:57.998Z,14.85
2023-05-22T11:37:24.785Z,11.80
2023-05-22T11:39:58.732Z,11.73
2023-05-22T11:42:25.561Z,12.03
2023-05-22T11:44:52.342Z,12.52
2023-05-22T11:47:19.056Z,11.60
2023-05-22T11:49:46.260Z,11.20
2023-05-22T11:52:13.234Z,13.40
2023-05-22T11:54:39.908Z,14.18
2023-05-22T11:57:07.906Z,15.48
2023-05-22T11:59:34.788Z,11.68
2023-05-22T12:02:01.503Z,12.95
2023-05-22T12:04:28.204Z,12.38
2023-05-22T12:06:55.444Z,14.40
2023-05-22T12:09:22.215Z,13.85
2023-05-22T12:11:49.393Z,12.52
2023-05-22T12:14:16.219Z,11.40
2023-05-22T12:16:44.409Z,14.32
2023-05-22T12:19:12.341Z,13.73
2023-05-22T12:21:40.869Z,11.73
2023-05-22T12:24:08.144Z,13.30
2023-05-22T12:26:36.276Z,11.95
2023-05-22T12:29:04.548Z,13.70
2023-05-22T12:31:36.282Z,17.17
2023-05-22T12:34:06.642Z,11.88
2023-05-22T12:36:34.903Z,11.65
2023-05-22T12:39:01.836Z,12.65
2023-05-22T12:41:28.492Z,13.00
2023-05-22T12:43:55.137Z,13.02
2023-05-22T12:46:21.713Z,12.02
2023-05-22T12:48:48.310Z,12.00
2023-05-22T12:51:14.966Z,11.60
2023-05-22T12:53:41.505Z,13.20
2023-05-22T12:56:08.056Z,12.10
2023-05-22T12:58:34.649Z,12.38
2023-05-22T13:01:01.381Z,11.90
2023-05-22T13:03:27.998Z,13.98
2023-05-22T13:05:54.616Z,12.68
2023-05-22T13:08:22.228Z,13.45
2023-05-22T13:10:48.884Z,12.65
2023-05-22T13:13:15.531Z,13.52
2023-05-22T13:15:42.369Z,14.45
2023-05-22T13:18:09.264Z,13.23
2023-05-22T13:20:38.977Z,14.07
2023-05-22T13:23:05.883Z,14.63
2023-05-22T13:25:32.519Z,12.95
2023-05-22T13:27:59.919Z,13.38
2023-05-22T13:30:26.775Z,13.15
2023-05-22T13:32:53.621Z,14.57
2023-05-22T13:35:20.617Z,13.45
2023-05-22T13:37:47.403Z,15.75
2023-05-22T13:40:15.388Z,13.68
2023-05-22T13:42:42.315Z,12.65
2023-05-22T13:45:10.303Z,13.30
2023-05-22T13:47:37.102Z,15.63
2023-05-22T13:50:05.571Z,12.57
2023-05-22T13:52:32.216Z,11.88
2023-05-22T13:55:00.045Z,16.85
2023-05-22T13:57:26.686Z,12.57
2023-05-22T13:59:56.141Z,13.13
2023-05-22T14:02:22.895Z,13.07
2023-05-22T14:04:52.039Z,11.68
2023-05-22T14:07:18.753Z,12.50
2023-05-22T14:09:45.682Z,14.68
2023-05-22T14:12:12.543Z,11.85
2023-05-22T14:14:39.248Z,13.85
2023-05-22T14:17:08.693Z,11.75
2023-05-22T14:19:35.831Z,13.18
2023-05-22T14:22:02.587Z,13.30
2023-05-22T14:24:29.357Z,11.70
2023-05-22T14:26:58.099Z,12.27
2023-05-22T14:29:25.878Z,12.43
2023-05-22T14:32:01.039Z,15.00
2023-05-22T14:34:30.132Z,12.18
2023-05-22T14:36:58.142Z,12.13
2023-05-22T14:39:25.775Z,13.80
2023-05-22T14:41:53.652Z,12.60
2023-05-22T14:44:22.365Z,12.15
2023-05-22T14:46:50.766Z,10.90
2023-05-22T14:49:17.629Z,12.10
2023-05-22T14:51:48.163Z,11.25
2023-05-22T14:54:18.118Z,11.10
2023-05-22T14:56:47.762Z,12.80
2023-05-22T14:59:14.477Z,13.23
2023-05-22T15:01:41.348Z,10.98
2023-05-22T15:04:08.957Z,10.75
2023-05-22T15:06:36.879Z,11.13
2023-05-22T15:09:03.675Z,14.90
2023-05-22T15:11:30.397Z,12.90
2023-05-22T15:13:57.076Z,10.27
2023-05-22T15:16:25.459Z,9.90
2023-05-22T15:18:52.157Z,9.75
2023-05-22T15:21:18.965Z,10.70
2023-05-22T15:23:45.573Z,13.40
2023-05-22T15:26:12.257Z,19.63
2023-05-22T15:28:38.850Z,18.38
2023-05-22T15:31:05.593Z,16.58
2023-05-22T15:33:33.929Z,21.27
2023-05-22T15:36:00.532Z,22.92
2023-05-22T15:38:28.208Z,16.67
2023-05-22T15:40:54.921Z,19.92
2023-05-22T15:43:21.502Z,24.48
2023-05-22T15:45:48.941Z,31.25
2023-05-22T15:48:16.672Z,23.38
2023-05-22T15:50:43.392Z,21.15
2023-05-22T15:53:10.332Z,19.70
2023-05-22T15:55:38.427Z,15.52
2023-05-22T15:58:07.601Z,19.23
2023-05-22T16:00:38.658Z,15.77
2023-05-22T16:03:08.976Z,10.05
2023-05-22T16:05:40.336Z,11.00
2023-05-22T16:08:10.074Z,10.90
2023-05-22T16:10:37.263Z,9.30
2023-05-22T16:13:05.274Z,8.25
2023-05-22T16:15:32.056Z,6.45
2023-05-22T16:17:58.667Z,7.95
2023-05-22T16:20:25.259Z,6.88
2023-05-22T16:22:51.997Z,8.35
2023-05-22T16:25:18.732Z,10.23
2023-05-22T16:27:45.495Z,10.98
2023-05-22T16:30:14.747Z,7.63
2023-05-22T16:32:41.387Z,8.55
2023-05-22T16:35:09.388Z,7.03
2023-05-22T16:37:36.219Z,7.25
2023-05-22T16:40:03.378Z,7.88
2023-05-22T16:42:29.979Z,11.23
2023-05-22T16:44:56.668Z,11.15
2023-05-22T16:47:23.438Z,9.88
2023-05-22T16:49:50.443Z,10.48
2023-05-22T16:52:18.173Z,10.18
2023-05-22T16:54:44.759Z,13.13
2023-05-22T16:57:11.331Z,10.93
2023-05-22T16:59:38.123Z,11.98
2023-05-22T17:02:04.968Z,10.77
2023-05-22T17:04:31.607Z,12.13
2023-05-22T17:06:58.175Z,14.95
2023-05-22T17:09:24.856Z,12.40
2023-05-22T17:11:51.509Z,11.70
2023-05-22T17:14:18.205Z,12.65
2023-05-22T17:16:44.930Z,17.23
2023-05-22T17:19:11.764Z,15.40
2023-05-22T17:21:38.484Z,13.70
2023-05-22T17:24:05.290Z,12.30
2023-05-22T17:26:33.533Z,12.38
2023-05-22T17:29:00.772Z,13.13
2023-05-22T17:31:27.426Z,13.52
2023-05-22T17:33:54.297Z,13.23
2023-05-22T17:36:20.984Z,12.32
2023-05-22T17:38:50.430Z,14.57
2023-05-22T17:41:17.244Z,19.00
2023-05-22T17:43:43.877Z,14.95
2023-05-22T17:46:10.634Z,11.82
2023-05-22T17:48:37.346Z,11.98
2023-05-22T17:51:04.186Z,12.55
2023-05-22T17:53:34.808Z,11.60
2023-05-22T17:56:05.212Z,11.07
2023-05-22T17:58:32.544Z,13.25
2023-05-22T18:00:59.429Z,10.73
2023-05-22T18:03:26.663Z,11.05
2023-05-22T18:05:53.598Z,11.57
2023-05-22T18:08:21.314Z,18.65
2023-05-22T18:10:48.859Z,15.20
2023-05-22T18:13:15.572Z,14.88
2023-05-22T18:15:42.313Z,17.40
2023-05-22T18:18:11.387Z,14.05
2023-05-22T18:20:39.863Z,15.07
2023-05-22T18:23:06.636Z,16.67
2023-05-22T18:25:35.661Z,15.88
2023-05-22T18:28:04.308Z,15.93
2023-05-22T18:30:32.198Z,12.88
2023-05-22T18:32:58.865Z,17.17
2023-05-22T18:35:25.659Z,19.13
2023-05-22T18:37:52.315Z,19.77
2023-05-22T18:40:18.922Z,18.35
2023-05-22T18:42:45.496Z,21.08
2023-05-22T18:45:12.310Z,20.30
2023-05-22T18:47:39.276Z,15.32
2023-05-22T18:50:06.750Z,14.18
2023-05-22T18:52:33.355Z,14.70
2023-05-22T18:54:59.913Z,13.45
2023-05-22T18:57:26.582Z,13.20
2023-05-22T18:59:53.155Z,15.38
2023-05-22T19:02:21.708Z,12.35
2023-05-22T19:04:51.532Z,15.02
2023-05-22T19:07:18.277Z,13.88
2023-05-22T19:09:44.908Z,15.30
2023-05-22T19:12:11.476Z,14.50
2023-05-22T19:14:38.086Z,14.73
2023-05-22T19:17:05.150Z,14.55
2023-05-22T19:19:31.897Z,17.52
2023-05-22T19:21:58.586Z,14.95
2023-05-22T19:24:26.489Z,17.60
2023-05-22T19:26:53.130Z,14.57
2023-05-22T19:29:19.703Z,16.83
2023-05-22T19:31:46.373Z,19.15
2023-05-22T19:34:12.933Z,17.88
2023-05-22T19:36:39.586Z,18.90
2023-05-22T19:39:06.264Z,15.82
2023-05-22T19:41:32.912Z,16.00
2023-05-22T19:43:59.524Z,16.58
2023-05-22T19:46:26.420Z,17.42
2023-05-22T19:48:53.667Z,19.42
2023-05-22T19:51:20.421Z,16.77
2023-05-22T19:53:47.035Z,17.40
2023-05-22T19:56:13.652Z,17.63
2023-05-22T19:58:40.252Z,21.60
2023-05-22T20:01:06.948Z,17.65
2023-05-22T20:03:33.937Z,18.35
2023-05-22T20:06:01.001Z,16.58
2023-05-22T20:08:28.399Z,16.85
2023-05-22T20:10:54.992Z,15.85
2023-05-22T20:13:21.570Z,18.85
2023-05-22T20:15:49.981Z,16.98
2023-05-22T20:18:16.926Z,18.42
2023-05-22T20:20:43.776Z,17.90
2023-05-22T20:23:10.595Z,15.57
2023-05-22T20:25:37.670Z,16.38
2023-05-22T20:28:04.954Z,15.82
2023-05-22T20:30:32.421Z,14.63
2023-05-22T20:32:59.084Z,14.65
2023-05-22T20:35:26.414Z,12.45
2023-05-22T20:37:53.360Z,12.43
2023-05-22T20:40:20.202Z,12.07
2023-05-22T20:42:47.421Z,14.05
2023-05-22T20:45:16.096Z,17.58
2023-05-22T20:47:43.093Z,18.58
2023-05-22T20:50:10.082Z,21.48
2023-05-22T20:52:39.641Z,18.98
2023-05-22T20:55:07.256Z,21.75
2023-05-22T20:57:34.762Z,21.63
2023-05-22T21:00:01.556Z,23.30
2023-05-22T21:02:28.241Z,23.88
2023-05-22T21:04:54.879Z,22.88
2023-05-22T21:07:21.554Z,32.08
2023-05-22T21:09:48.116Z,26.63
2023-05-22T21:12:14.727Z,26.88
2023-05-22T21:14:43.364Z,26.58
2023-05-22T21:17:10.601Z,29.38
2023-05-22T21:19:37.369Z,30.65
2023-05-22T21:22:04.247Z,28.15
2023-05-22T21:24:32.309Z,34.13
2023-05-22T21:26:59.080Z,35.53
2023-05-22T21:29:25.847Z,33.83
2023-05-22T21:31:52.487Z,38.50
2023-05-22T21:34:19.400Z,39.60
2023-05-22T21:36:46.026Z,40.67
2023-05-22T21:39:12.619Z,48.92
2023-05-22T21:41:39.171Z,46.40
2023-05-22T21:44:05.912Z,46.30
2023-05-22T21:46:32.535Z,62.00
2023-05-22T21:48:59.798Z,57.88
2023-05-22T21:51:26.394Z,61.30
2023-05-22T21:53:52.951Z,56.75
2023-05-22T21:56:19.520Z,59.83
2023-05-22T21:58:46.557Z,64.00
2023-05-22T22:01:13.441Z,62.00
2023-05-22T22:03:40.288Z,68.28
2023-05-22T22:06:07.126Z,63.72
2023-05-22T22:08:33.836Z,63.83
2023-05-22T22:11:00.477Z,58.20
2023-05-22T22:13:27.042Z,67.78
2023-05-22T22:15:53.665Z,71.32
2023-05-22T22:18:20.429Z,56.70
2023-05-22T22:20:49.943Z,80.78
2023-05-22T22:23:16.927Z,77.88
2023-05-22T22:25:43.560Z,69.68
2023-05-22T22:28:10.314Z,73.25
2023-05-22T22:30:36.877Z,69.38
2023-05-22T22:33:03.557Z,62.35
2023-05-22T22:35:30.612Z,60.80
2023-05-22T22:37:57.300Z,81.88
2023-05-22T22:40:25.989Z,72.63
2023-05-22T22:42:53.319Z,68.82
2023-05-22T22:45:19.979Z,80.10
2023-05-22T22:47:47.329Z,68.13
2023-05-22T22:50:14.043Z,69.85
2023-05-22T22:52:45.364Z,80.63
2023-05-22T22:55:12.340Z,79.97
2023-05-22T22:57:39.163Z,63.50
2023-05-22T23:00:06.469Z,69.90
2023-05-22T23:02:33.136Z,76.70
2023-05-22T23:04:59.892Z,68.55
2023-05-22T23:07:28.020Z,69.85
2023-05-22T23:09:54.638Z,78.88
2023-05-22T23:12:21.376Z,80.65
2023-05-22T23:14:47.918Z,70.05
2023-05-22T23:17:14.465Z,82.10
2023-05-22T23:19:41.064Z,85.95
2023-05-22T23:22:07.952Z,82.63
2023-05-22T23:24:34.550Z,80.88
2023-05-22T23:27:01.325Z,75.32
2023-05-22T23:29:27.913Z,78.65
2023-05-22T23:31:55.262Z,75.65
2023-05-22T23:34:21.985Z,67.70
2023-05-22T23:36:48.834Z,77.72
2023-05-22T23:39:15.418Z,76.78
2023-05-22T23:41:42.143Z,70.35
2023-05-22T23:44:08.773Z,75.93
2023-05-22T23:46:37.131Z,66.45
2023-05-22T23:49:03.790Z,70.65
2023-05-22T23:51:31.225Z,69.93
2023-05-22T23:53:57.862Z,64.05
2023-05-22T23:56:24.472Z,60.50
2023-05-22T23:58:51.066Z,54.85
